sensor_id;sensor_type;location;lat;lon;timestamp;P1;durP1;ratioP1;P2;durP2;ratioP2
19733;SDS011;10018;51.230;7.860;2023-01-30T00:00:52;41.90;;;19.13;;
19733;SDS011;10018;51.230;7.860;2023-01-30T00:03:19;42.57;;;18.50;;
19733;SDS011;10018;51.230;7.860;2023-01-30T00:05:45;36.97;;;17.50;;
19733;SDS011;10018;51.230;7.860;2023-01-30T00:08:11;40.27;;;19.07;;
19733;SDS011;10018;51.230;7.860;2023-01-30T00:10:37;38.57;;;18.00;;
19733;SDS011;10018;51.230;7.860;2023-01-30T00:13:02;42.73;;;18.23;;
19733;SDS011;10018;51.230;7.860;2023-01-30T00:15:28;37.67;;;18.57;;
19733;SDS011;10018;51.230;7.860;2023-01-30T00:17:53;37.87;;;17.77;;
19733;SDS011;10018;51.230;7.860;2023-01-30T00:20:19;39.67;;;18.23;;
19733;SDS011;10018;51.230;7.860;2023-01-30T00:22:44;36.73;;;16.97;;
19733;SDS011;10018;51.230;7.860;2023-01-30T00:25:10;38.43;;;18.33;;
19733;SDS011;10018;51.230;7.860;2023-01-30T00:27:35;35.43;;;16.80;;
19733;SDS011;10018;51.230;7.860;2023-01-30T00:30:01;38.03;;;17.83;;
19733;SDS011;10018;51.230;7.860;2023-01-30T00:32:29;38.03;;;17.43;;
19733;SDS011;10018;51.230;7.860;2023-01-30T00:34:55;35.87;;;17.13;;
19733;SDS011;10018;51.230;7.860;2023-01-30T00:37:21;37.60;;;16.83;;
19733;SDS011;10018;51.230;7.860;2023-01-30T00:39:46;37.37;;;17.73;;
19733;SDS011;10018;51.230;7.860;2023-01-30T00:42:12;35.60;;;17.07;;
19733;SDS011;10018;51.230;7.860;2023-01-30T00:44:56;39.23;;;16.90;;
19733;SDS011;10018;51.230;7.860;2023-01-30T00:47:40;37.23;;;17.73;;
19733;SDS011;10018;51.230;7.860;2023-01-30T00:50:05;34.00;;;17.07;;
19733;SDS011;10018;51.230;7.860;2023-01-30T00:52:31;32.70;;;16.77;;
19733;SDS011;10018;51.230;7.860;2023-01-30T00:54:57;34.43;;;17.33;;
19733;SDS011;10018;51.230;7.860;2023-01-30T00:57:22;35.37;;;17.00;;
19733;SDS011;10018;51.230;7.860;2023-01-30T00:59:48;36.23;;;17.87;;
19733;SDS011;10018;51.230;7.860;2023-01-30T01:02:13;34.40;;;16.90;;
19733;SDS011;10018;51.230;7.860;2023-01-30T01:04:39;36.27;;;17.30;;
19733;SDS011;10018;51.230;7.860;2023-01-30T01:07:08;33.47;;;16.87;;
19733;SDS011;10018;51.230;7.860;2023-01-30T01:09:34;36.10;;;16.50;;
19733;SDS011;10018;51.230;7.860;2023-01-30T01:11:59;36.40;;;17.47;;
19733;SDS011;10018;51.230;7.860;2023-01-30T01:14:25;35.37;;;17.43;;
19733;SDS011;10018;51.230;7.860;2023-01-30T01:16:50;33.70;;;17.83;;
19733;SDS011;10018;51.230;7.860;2023-01-30T01:19:16;38.57;;;19.07;;
19733;SDS011;10018;51.230;7.860;2023-01-30T01:21:41;35.40;;;17.10;;
19733;SDS011;10018;51.230;7.860;2023-01-30T01:24:08;33.90;;;17.47;;
19733;SDS011;10018;51.230;7.860;2023-01-30T01:26:37;35.73;;;17.30;;
19733;SDS011;10018;51.230;7.860;2023-01-30T01:29:02;33.90;;;17.23;;
19733;SDS011;10018;51.230;7.860;2023-01-30T01:31:28;33.97;;;17.77;;
19733;SDS011;10018;51.230;7.860;2023-01-30T01:33:53;35.60;;;17.00;;
19733;SDS011;10018;51.230;7.860;2023-01-30T01:36:19;35.63;;;18.83;;
19733;SDS011;10018;51.230;7.860;2023-01-30T01:38:45;55.70;;;25.50;;
19733;SDS011;10018;51.230;7.860;2023-01-30T01:41:11;37.17;;;18.40;;
19733;SDS011;10018;51.230;7.860;2023-01-30T01:43:58;36.50;;;18.47;;
19733;SDS011;10018;51.230;7.860;2023-01-30T01:49:35;33.13;;;17.30;;
19733;SDS011;10018;51.230;7.860;2023-01-30T01:52:06;35.13;;;18.57;;
19733;SDS011;10018;51.230;7.860;2023-01-30T01:54:42;35.63;;;18.23;;
19733;SDS011;10018;51.230;7.860;2023-01-30T01:57:14;39.50;;;19.30;;
19733;SDS011;10018;51.230;7.860;2023-01-30T01:59:47;37.17;;;18.70;;
19733;SDS011;10018;51.230;7.860;2023-01-30T02:02:29;35.97;;;18.83;;
19733;SDS011;10018;51.230;7.860;2023-01-30T02:04:55;34.47;;;17.43;;
19733;SDS011;10018;51.230;7.860;2023-01-30T02:10:14;37.90;;;19.63;;
19733;SDS011;10018;51.230;7.860;2023-01-30T02:12:43;33.73;;;17.50;;
19733;SDS011;10018;51.230;7.860;2023-01-30T02:15:10;31.20;;;16.50;;
19733;SDS011;10018;51.230;7.860;2023-01-30T02:17:36;26.07;;;14.43;;
19733;SDS011;10018;51.230;7.860;2023-01-30T02:20:10;23.73;;;13.03;;
19733;SDS011;10018;51.230;7.860;2023-01-30T02:28:45;15.50;;;8.43;;
19733;SDS011;10018;51.230;7.860;2023-01-30T02:34:32;12.30;;;6.50;;
19733;SDS011;10018;51.230;7.860;2023-01-30T02:40:04;14.33;;;8.20;;
19733;SDS011;10018;51.230;7.860;2023-01-30T02:45:18;9.10;;;5.27;;
19733;SDS011;10018;51.230;7.860;2023-01-30T02:48:02;8.67;;;5.23;;
19733;SDS011;10018;51.230;7.860;2023-01-30T02:50:32;8.70;;;5.57;;
19733;SDS011;10018;51.230;7.860;2023-01-30T02:53:03;11.00;;;5.47;;
19733;SDS011;10018;51.230;7.860;2023-01-30T02:55:30;8.50;;;4.77;;
19733;SDS011;10018;51.230;7.860;2023-01-30T02:57:55;8.57;;;5.03;;
19733;SDS011;10018;51.230;7.860;2023-01-30T03:00:22;9.63;;;5.43;;
19733;SDS011;10018;51.230;7.860;2023-01-30T03:11:07;11.70;;;7.13;;
19733;SDS011;10018;51.230;7.860;2023-01-30T03:16:11;14.53;;;8.50;;
19733;SDS011;10018;51.230;7.860;2023-01-30T03:18:41;18.00;;;10.37;;
19733;SDS011;10018;51.230;7.860;2023-01-30T03:21:08;19.20;;;10.93;;
19733;SDS011;10018;51.230;7.860;2023-01-30T03:23:35;18.83;;;11.17;;
19733;SDS011;10018;51.230;7.860;2023-01-30T03:26:01;20.83;;;11.77;;
19733;SDS011;10018;51.230;7.860;2023-01-30T03:28:29;22.03;;;12.80;;
19733;SDS011;10018;51.230;7.860;2023-01-30T03:30:54;23.23;;;12.90;;
19733;SDS011;10018;51.230;7.860;2023-01-30T03:33:20;23.07;;;13.53;;
19733;SDS011;10018;51.230;7.860;2023-01-30T03:35:46;27.60;;;14.37;;
19733;SDS011;10018;51.230;7.860;2023-01-30T03:38:11;26.87;;;14.40;;
19733;SDS011;10018;51.230;7.860;2023-01-30T03:40:38;25.83;;;15.20;;
19733;SDS011;10018;51.230;7.860;2023-01-30T03:43:04;30.63;;;17.67;;
19733;SDS011;10018;51.230;7.860;2023-01-30T03:45:29;34.30;;;16.90;;
19733;SDS011;10018;51.230;7.860;2023-01-30T03:47:55;31.77;;;17.00;;
19733;SDS011;10018;51.230;7.860;2023-01-30T03:50:20;31.80;;;17.67;;
19733;SDS011;10018;51.230;7.860;2023-01-30T03:52:46;31.40;;;17.43;;
19733;SDS011;10018;51.230;7.860;2023-01-30T03:55:11;30.40;;;17.23;;
19733;SDS011;10018;51.230;7.860;2023-01-30T03:57:37;30.00;;;15.40;;
19733;SDS011;10018;51.230;7.860;2023-01-30T04:00:03;33.10;;;17.53;;
19733;SDS011;10018;51.230;7.860;2023-01-30T04:02:29;32.37;;;17.57;;
19733;SDS011;10018;51.230;7.860;2023-01-30T04:04:54;30.50;;;17.50;;
19733;SDS011;10018;51.230;7.860;2023-01-30T04:07:20;31.40;;;16.87;;
19733;SDS011;10018;51.230;7.860;2023-01-30T04:09:45;30.13;;;17.03;;
19733;SDS011;10018;51.230;7.860;2023-01-30T04:12:11;27.67;;;17.07;;
19733;SDS011;10018;51.230;7.860;2023-01-30T04:14:37;28.60;;;16.23;;
19733;SDS011;10018;51.230;7.860;2023-01-30T04:17:03;28.23;;;14.87;;
19733;SDS011;10018;51.230;7.860;2023-01-30T04:19:28;30.83;;;16.60;;
19733;SDS011;10018;51.230;7.860;2023-01-30T04:21:54;28.93;;;16.67;;
19733;SDS011;10018;51.230;7.860;2023-01-30T04:24:19;25.10;;;13.60;;
19733;SDS011;10018;51.230;7.860;2023-01-30T04:26:45;25.87;;;14.40;;
19733;SDS011;10018;51.230;7.860;2023-01-30T04:29:10;25.57;;;14.97;;
19733;SDS011;10018;51.230;7.860;2023-01-30T04:31:36;22.17;;;13.43;;
19733;SDS011;10018;51.230;7.860;2023-01-30T04:34:01;20.60;;;12.23;;
19733;SDS011;10018;51.230;7.860;2023-01-30T04:36:27;19.30;;;11.53;;
19733;SDS011;10018;51.230;7.860;2023-01-30T04:38:55;18.90;;;11.40;;
19733;SDS011;10018;51.230;7.860;2023-01-30T04:41:22;18.00;;;10.93;;
19733;SDS011;10018;51.230;7.860;2023-01-30T04:43:47;18.33;;;11.60;;
19733;SDS011;10018;51.230;7.860;2023-01-30T04:46:13;17.50;;;11.07;;
19733;SDS011;10018;51.230;7.860;2023-01-30T04:48:38;19.90;;;11.67;;
19733;SDS011;10018;51.230;7.860;2023-01-30T04:51:04;18.07;;;11.03;;
19733;SDS011;10018;51.230;7.860;2023-01-30T04:53:30;19.07;;;10.73;;
19733;SDS011;10018;51.230;7.860;2023-01-30T04:55:56;17.53;;;10.97;;
19733;SDS011;10018;51.230;7.860;2023-01-30T04:58:21;14.63;;;8.90;;
19733;SDS011;10018;51.230;7.860;2023-01-30T05:00:47;16.90;;;10.00;;
19733;SDS011;10018;51.230;7.860;2023-01-30T05:03:13;17.40;;;10.33;;
19733;SDS011;10018;51.230;7.860;2023-01-30T05:05:38;17.73;;;10.30;;
19733;SDS011;10018;51.230;7.860;2023-01-30T05:08:04;15.23;;;10.07;;
19733;SDS011;10018;51.230;7.860;2023-01-30T05:10:30;17.10;;;10.03;;
19733;SDS011;10018;51.230;7.860;2023-01-30T05:13:00;17.73;;;9.97;;
19733;SDS011;10018;51.230;7.860;2023-01-30T05:15:26;13.93;;;8.90;;
19733;SDS011;10018;51.230;7.860;2023-01-30T05:17:52;12.77;;;8.10;;
19733;SDS011;10018;51.230;7.860;2023-01-30T05:20:17;13.60;;;7.97;;
19733;SDS011;10018;51.230;7.860;2023-01-30T05:22:43;14.20;;;8.20;;
19733;SDS011;10018;51.230;7.860;2023-01-30T05:25:08;14.03;;;8.23;;
19733;SDS011;10018;51.230;7.860;2023-01-30T05:27:34;13.37;;;8.07;;
19733;SDS011;10018;51.230;7.860;2023-01-30T05:29:59;13.40;;;7.63;;
19733;SDS011;10018;51.230;7.860;2023-01-30T05:32:25;12.27;;;7.37;;
19733;SDS011;10018;51.230;7.860;2023-01-30T05:34:54;10.73;;;6.47;;
19733;SDS011;10018;51.230;7.860;2023-01-30T05:37:19;8.57;;;5.47;;
19733;SDS011;10018;51.230;7.860;2023-01-30T05:39:46;9.30;;;6.07;;
19733;SDS011;10018;51.230;7.860;2023-01-30T05:42:11;9.70;;;5.77;;
19733;SDS011;10018;51.230;7.860;2023-01-30T05:44:38;9.87;;;5.90;;
19733;SDS011;10018;51.230;7.860;2023-01-30T05:47:03;9.03;;;5.00;;
19733;SDS011;10018;51.230;7.860;2023-01-30T05:49:29;8.80;;;5.20;;
19733;SDS011;10018;51.230;7.860;2023-01-30T05:51:54;9.53;;;5.50;;
19733;SDS011;10018;51.230;7.860;2023-01-30T05:54:20;8.27;;;5.27;;
19733;SDS011;10018;51.230;7.860;2023-01-30T05:56:48;8.63;;;5.03;;
19733;SDS011;10018;51.230;7.860;2023-01-30T05:59:14;8.37;;;4.80;;
19733;SDS011;10018;51.230;7.860;2023-01-30T06:01:42;7.70;;;4.70;;
19733;SDS011;10018;51.230;7.860;2023-01-30T06:04:07;9.20;;;6.13;;
19733;SDS011;10018;51.230;7.860;2023-01-30T06:06:33;7.80;;;4.93;;
19733;SDS011;10018;51.230;7.860;2023-01-30T06:08:58;8.73;;;5.90;;
19733;SDS011;10018;51.230;7.860;2023-01-30T06:11:24;9.37;;;5.70;;
19733;SDS011;10018;51.230;7.860;2023-01-30T06:13:50;9.17;;;5.30;;
19733;SDS011;10018;51.230;7.860;2023-01-30T06:16:16;8.37;;;5.37;;
19733;SDS011;10018;51.230;7.860;2023-01-30T06:18:42;8.20;;;5.07;;
19733;SDS011;10018;51.230;7.860;2023-01-30T06:21:09;8.33;;;4.93;;
19733;SDS011;10018;51.230;7.860;2023-01-30T06:23:34;8.03;;;4.80;;
19733;SDS011;10018;51.230;7.860;2023-01-30T06:26:00;8.23;;;5.00;;
19733;SDS011;10018;51.230;7.860;2023-01-30T06:28:26;9.00;;;4.73;;
19733;SDS011;10018;51.230;7.860;2023-01-30T06:30:52;9.60;;;5.77;;
19733;SDS011;10018;51.230;7.860;2023-01-30T06:33:18;9.27;;;5.70;;
19733;SDS011;10018;51.230;7.860;2023-01-30T06:35:46;10.07;;;5.80;;
19733;SDS011;10018;51.230;7.860;2023-01-30T06:38:13;10.93;;;6.67;;
19733;SDS011;10018;51.230;7.860;2023-01-30T06:40:39;9.67;;;5.73;;
19733;SDS011;10018;51.230;7.860;2023-01-30T06:43:05;10.23;;;5.93;;
19733;SDS011;10018;51.230;7.860;2023-01-30T06:45:31;10.37;;;5.97;;
19733;SDS011;10018;51.230;7.860;2023-01-30T06:47:57;9.97;;;6.40;;
19733;SDS011;10018;51.230;7.860;2023-01-30T06:50:24;11.13;;;6.33;;
19733;SDS011;10018;51.230;7.860;2023-01-30T06:52:51;9.70;;;5.63;;
19733;SDS011;10018;51.230;7.860;2023-01-30T06:55:19;10.93;;;6.43;;
19733;SDS011;10018;51.230;7.860;2023-01-30T06:57:46;10.73;;;6.40;;
19733;SDS011;10018;51.230;7.860;2023-01-30T07:00:16;10.50;;;6.23;;
19733;SDS011;10018;51.230;7.860;2023-01-30T07:02:43;10.97;;;6.57;;
19733;SDS011;10018;51.230;7.860;2023-01-30T07:05:09;10.13;;;6.13;;
19733;SDS011;10018;51.230;7.860;2023-01-30T07:07:36;12.07;;;6.57;;
19733;SDS011;10018;51.230;7.860;2023-01-30T07:10:03;12.10;;;7.07;;
19733;SDS011;10018;51.230;7.860;2023-01-30T07:12:30;11.80;;;6.83;;
19733;SDS011;10018;51.230;7.860;2023-01-30T07:14:55;12.50;;;7.67;;
19733;SDS011;10018;51.230;7.860;2023-01-30T07:17:21;11.83;;;6.77;;
19733;SDS011;10018;51.230;7.860;2023-01-30T07:19:47;11.60;;;6.60;;
19733;SDS011;10018;51.230;7.860;2023-01-30T07:22:13;11.43;;;7.20;;
19733;SDS011;10018;51.230;7.860;2023-01-30T07:24:39;10.57;;;6.47;;
19733;SDS011;10018;51.230;7.860;2023-01-30T07:27:07;11.60;;;7.03;;
19733;SDS011;10018;51.230;7.860;2023-01-30T07:29:33;11.00;;;6.20;;
19733;SDS011;10018;51.230;7.860;2023-01-30T07:31:59;9.90;;;6.57;;
19733;SDS011;10018;51.230;7.860;2023-01-30T07:34:25;13.13;;;6.97;;
19733;SDS011;10018;51.230;7.860;2023-01-30T07:36:50;11.80;;;7.27;;
19733;SDS011;10018;51.230;7.860;2023-01-30T07:39:16;13.27;;;7.53;;
19733;SDS011;10018;51.230;7.860;2023-01-30T07:41:41;13.40;;;7.67;;
19733;SDS011;10018;51.230;7.860;2023-01-30T07:44:07;14.60;;;7.73;;
19733;SDS011;10018;51.230;7.860;2023-01-30T07:46:33;13.87;;;8.20;;
19733;SDS011;10018;51.230;7.860;2023-01-30T07:49:01;16.40;;;8.60;;
19733;SDS011;10018;51.230;7.860;2023-01-30T07:51:28;13.87;;;8.10;;
19733;SDS011;10018;51.230;7.860;2023-01-30T07:53:53;16.37;;;9.07;;
19733;SDS011;10018;51.230;7.860;2023-01-30T07:56:19;15.53;;;9.23;;
19733;SDS011;10018;51.230;7.860;2023-01-30T07:58:47;16.13;;;9.60;;
19733;SDS011;10018;51.230;7.860;2023-01-30T08:01:14;18.43;;;10.73;;
19733;SDS011;10018;51.230;7.860;2023-01-30T08:03:40;19.03;;;9.73;;
19733;SDS011;10018;51.230;7.860;2023-01-30T08:06:07;19.80;;;10.80;;
19733;SDS011;10018;51.230;7.860;2023-01-30T08:08:33;22.90;;;10.70;;
19733;SDS011;10018;51.230;7.860;2023-01-30T08:10:59;18.07;;;10.43;;
19733;SDS011;10018;51.230;7.860;2023-01-30T08:13:24;23.70;;;10.37;;
19733;SDS011;10018;51.230;7.860;2023-01-30T08:15:50;20.30;;;10.73;;
19733;SDS011;10018;51.230;7.860;2023-01-30T08:18:15;22.10;;;11.23;;
19733;SDS011;10018;51.230;7.860;2023-01-30T08:20:41;20.57;;;11.60;;
19733;SDS011;10018;51.230;7.860;2023-01-30T08:23:07;18.20;;;11.17;;
19733;SDS011;10018;51.230;7.860;2023-01-30T08:25:33;22.37;;;11.17;;
19733;SDS011;10018;51.230;7.860;2023-01-30T08:28:02;19.13;;;10.90;;
19733;SDS011;10018;51.230;7.860;2023-01-30T08:30:28;19.20;;;9.57;;
19733;SDS011;10018;51.230;7.860;2023-01-30T08:32:55;20.57;;;10.97;;
19733;SDS011;10018;51.230;7.860;2023-01-30T08:35:21;21.03;;;11.00;;
19733;SDS011;10018;51.230;7.860;2023-01-30T08:37:46;20.23;;;10.30;;
19733;SDS011;10018;51.230;7.860;2023-01-30T08:40:12;21.77;;;11.00;;
19733;SDS011;10018;51.230;7.860;2023-01-30T08:42:38;25.33;;;13.17;;
19733;SDS011;10018;51.230;7.860;2023-01-30T08:45:04;26.63;;;14.90;;
19733;SDS011;10018;51.230;7.860;2023-01-30T08:47:30;21.60;;;11.87;;
19733;SDS011;10018;51.230;7.860;2023-01-30T08:49:56;26.40;;;12.43;;
19733;SDS011;10018;51.230;7.860;2023-01-30T08:52:21;20.17;;;10.93;;
19733;SDS011;10018;51.230;7.860;2023-01-30T08:54:47;20.73;;;11.10;;
19733;SDS011;10018;51.230;7.860;2023-01-30T08:57:13;19.37;;;8.90;;
19733;SDS011;10018;51.230;7.860;2023-01-30T08:59:39;20.20;;;8.40;;
19733;SDS011;10018;51.230;7.860;2023-01-30T09:02:07;18.47;;;8.03;;
19733;SDS011;10018;51.230;7.860;2023-01-30T09:04:34;18.67;;;7.57;;
19733;SDS011;10018;51.230;7.860;2023-01-30T09:07:00;15.67;;;7.57;;
19733;SDS011;10018;51.230;7.860;2023-01-30T09:09:27;15.97;;;6.67;;
19733;SDS011;10018;51.230;7.860;2023-01-30T09:11:53;16.27;;;7.23;;
19733;SDS011;10018;51.230;7.860;2023-01-30T09:14:18;18.70;;;7.20;;
19733;SDS011;10018;51.230;7.860;2023-01-30T09:16:47;16.10;;;6.83;;
19733;SDS011;10018;51.230;7.860;2023-01-30T09:19:20;23.33;;;6.97;;
19733;SDS011;10018;51.230;7.860;2023-01-30T09:21:47;19.23;;;6.70;;
19733;SDS011;10018;51.230;7.860;2023-01-30T09:24:14;18.87;;;6.57;;
19733;SDS011;10018;51.230;7.860;2023-01-30T09:26:39;15.87;;;6.10;;
19733;SDS011;10018;51.230;7.860;2023-01-30T09:29:08;16.27;;;5.93;;
19733;SDS011;10018;51.230;7.860;2023-01-30T09:31:37;19.10;;;6.67;;
19733;SDS011;10018;51.230;7.860;2023-01-30T09:34:03;17.93;;;7.83;;
19733;SDS011;10018;51.230;7.860;2023-01-30T09:36:28;18.63;;;6.37;;
19733;SDS011;10018;51.230;7.860;2023-01-30T09:38:54;19.97;;;7.23;;
19733;SDS011;10018;51.230;7.860;2023-01-30T09:41:26;20.57;;;8.13;;
19733;SDS011;10018;51.230;7.860;2023-01-30T09:49:24;17.93;;;7.40;;
19733;SDS011;10018;51.230;7.860;2023-01-30T09:55:14;17.20;;;6.17;;
19733;SDS011;10018;51.230;7.860;2023-01-30T09:57:40;14.77;;;5.30;;
19733;SDS011;10018;51.230;7.860;2023-01-30T10:03:05;15.70;;;4.87;;
19733;SDS011;10018;51.230;7.860;2023-01-30T10:06:00;18.47;;;4.73;;
19733;SDS011;10018;51.230;7.860;2023-01-30T10:16:26;19.40;;;6.40;;
19733;SDS011;10018;51.230;7.860;2023-01-30T10:19:11;18.03;;;6.70;;
19733;SDS011;10018;51.230;7.860;2023-01-30T10:22:01;17.07;;;6.87;;
19733;SDS011;10018;51.230;7.860;2023-01-30T10:24:58;21.53;;;7.50;;
19733;SDS011;10018;51.230;7.860;2023-01-30T10:27:44;19.33;;;8.67;;
19733;SDS011;10018;51.230;7.860;2023-01-30T10:30:16;20.53;;;6.73;;
19733;SDS011;10018;51.230;7.860;2023-01-30T10:35:28;17.90;;;6.23;;
19733;SDS011;10018;51.230;7.860;2023-01-30T10:38:15;22.70;;;8.57;;
19733;SDS011;10018;51.230;7.860;2023-01-30T10:40:55;23.33;;;5.97;;
19733;SDS011;10018;51.230;7.860;2023-01-30T10:43:34;15.20;;;6.00;;
19733;SDS011;10018;51.230;7.860;2023-01-30T10:49:17;15.30;;;5.47;;
19733;SDS011;10018;51.230;7.860;2023-01-30T11:00:35;19.80;;;5.67;;
19733;SDS011;10018;51.230;7.860;2023-01-30T11:03:14;16.33;;;5.30;;
19733;SDS011;10018;51.230;7.860;2023-01-30T11:08:21;13.57;;;5.03;;
19733;SDS011;10018;51.230;7.860;2023-01-30T11:10:49;14.57;;;4.90;;
19733;SDS011;10018;51.230;7.860;2023-01-30T11:13:17;15.90;;;4.50;;
19733;SDS011;10018;51.230;7.860;2023-01-30T11:15:45;20.47;;;4.90;;
19733;SDS011;10018;51.230;7.860;2023-01-30T11:18:16;17.17;;;4.93;;
19733;SDS011;10018;51.230;7.860;2023-01-30T11:20:44;13.80;;;4.07;;
19733;SDS011;10018;51.230;7.860;2023-01-30T11:23:23;15.50;;;4.67;;
19733;SDS011;10018;51.230;7.860;2023-01-30T11:25:52;11.27;;;3.57;;
19733;SDS011;10018;51.230;7.860;2023-01-30T11:28:19;15.20;;;4.30;;
19733;SDS011;10018;51.230;7.860;2023-01-30T11:30:49;18.63;;;4.57;;
19733;SDS011;10018;51.230;7.860;2023-01-30T11:33:19;12.27;;;3.93;;
19733;SDS011;10018;51.230;7.860;2023-01-30T11:38:32;21.43;;;6.17;;
19733;SDS011;10018;51.230;7.860;2023-01-30T11:41:03;12.30;;;3.63;;
19733;SDS011;10018;51.230;7.860;2023-01-30T11:43:43;15.77;;;4.70;;
19733;SDS011;10018;51.230;7.860;2023-01-30T11:46:10;17.47;;;5.10;;
19733;SDS011;10018;51.230;7.860;2023-01-30T11:48:47;15.67;;;3.43;;
19733;SDS011;10018;51.230;7.860;2023-01-30T11:51:17;17.30;;;3.63;;
19733;SDS011;10018;51.230;7.860;2023-01-30T11:53:47;16.67;;;3.40;;
19733;SDS011;10018;51.230;7.860;2023-01-30T11:56:21;18.93;;;4.10;;
19733;SDS011;10018;51.230;7.860;2023-01-30T11:58:53;21.63;;;4.50;;
19733;SDS011;10018;51.230;7.860;2023-01-30T12:01:24;29.37;;;4.07;;
19733;SDS011;10018;51.230;7.860;2023-01-30T12:03:52;15.40;;;3.87;;
19733;SDS011;10018;51.230;7.860;2023-01-30T12:06:20;11.93;;;3.03;;
19733;SDS011;10018;51.230;7.860;2023-01-30T12:09:05;18.50;;;3.53;;
19733;SDS011;10018;51.230;7.860;2023-01-30T12:11:58;12.53;;;2.90;;
19733;SDS011;10018;51.230;7.860;2023-01-30T12:14:39;15.40;;;3.53;;
19733;SDS011;10018;51.230;7.860;2023-01-30T12:17:17;16.10;;;3.63;;
19733;SDS011;10018;51.230;7.860;2023-01-30T12:33:00;19.17;;;3.37;;
19733;SDS011;10018;51.230;7.860;2023-01-30T12:35:43;20.77;;;4.33;;
19733;SDS011;10018;51.230;7.860;2023-01-30T12:38:24;13.73;;;3.23;;
19733;SDS011;10018;51.230;7.860;2023-01-30T12:43:50;13.77;;;4.27;;
19733;SDS011;10018;51.230;7.860;2023-01-30T12:49:45;16.50;;;5.47;;
19733;SDS011;10018;51.230;7.860;2023-01-30T12:52:29;17.03;;;5.87;;
19733;SDS011;10018;51.230;7.860;2023-01-30T12:55:19;24.87;;;7.87;;
19733;SDS011;10018;51.230;7.860;2023-01-30T13:03:54;17.70;;;6.60;;
19733;SDS011;10018;51.230;7.860;2023-01-30T13:06:33;20.67;;;7.33;;
19733;SDS011;10018;51.230;7.860;2023-01-30T13:12:15;19.40;;;5.30;;
19733;SDS011;10018;51.230;7.860;2023-01-30T13:14:47;13.30;;;3.70;;
19733;SDS011;10018;51.230;7.860;2023-01-30T13:17:33;22.50;;;4.27;;
19733;SDS011;10018;51.230;7.860;2023-01-30T13:25:39;20.13;;;4.30;;
19733;SDS011;10018;51.230;7.860;2023-01-30T13:28:15;17.53;;;4.43;;
19733;SDS011;10018;51.230;7.860;2023-01-30T13:30:43;22.23;;;5.63;;
19733;SDS011;10018;51.230;7.860;2023-01-30T13:33:12;14.93;;;4.33;;
19733;SDS011;10018;51.230;7.860;2023-01-30T13:35:44;20.53;;;5.00;;
19733;SDS011;10018;51.230;7.860;2023-01-30T13:38:15;18.87;;;4.90;;
19733;SDS011;10018;51.230;7.860;2023-01-30T13:40:44;22.57;;;4.87;;
19733;SDS011;10018;51.230;7.860;2023-01-30T13:43:31;20.80;;;4.47;;
19733;SDS011;10018;51.230;7.860;2023-01-30T13:46:03;15.87;;;2.97;;
19733;SDS011;10018;51.230;7.860;2023-01-30T13:48:43;18.70;;;4.00;;
19733;SDS011;10018;51.230;7.860;2023-01-30T13:51:26;19.43;;;4.20;;
19733;SDS011;10018;51.230;7.860;2023-01-30T13:54:15;16.43;;;3.40;;
19733;SDS011;10018;51.230;7.860;2023-01-30T13:56:55;23.30;;;3.77;;
19733;SDS011;10018;51.230;7.860;2023-01-30T14:02:22;14.63;;;3.00;;
19733;SDS011;10018;51.230;7.860;2023-01-30T14:04:49;23.67;;;5.17;;
19733;SDS011;10018;51.230;7.860;2023-01-30T14:10:32;13.10;;;3.07;;
19733;SDS011;10018;51.230;7.860;2023-01-30T14:12:33;12.53;;;2.80;;
19733;SDS011;10018;51.230;7.860;2023-01-30T14:18:17;14.67;;;2.90;;
19733;SDS011;10018;51.230;7.860;2023-01-30T14:20:44;12.87;;;2.60;;
19733;SDS011;10018;51.230;7.860;2023-01-30T14:25:56;14.47;;;3.40;;
19733;SDS011;10018;51.230;7.860;2023-01-30T14:30:52;18.23;;;3.60;;
19733;SDS011;10018;51.230;7.860;2023-01-30T14:35:48;18.77;;;3.27;;
19733;SDS011;10018;51.230;7.860;2023-01-30T14:38:23;10.33;;;2.40;;
19733;SDS011;10018;51.230;7.860;2023-01-30T14:48:44;15.47;;;2.70;;
19733;SDS011;10018;51.230;7.860;2023-01-30T14:54:05;16.67;;;3.07;;
19733;SDS011;10018;51.230;7.860;2023-01-30T14:59:27;18.50;;;3.50;;
19733;SDS011;10018;51.230;7.860;2023-01-30T15:02:24;18.60;;;4.13;;
19733;SDS011;10018;51.230;7.860;2023-01-30T15:05:05;23.50;;;3.93;;
19733;SDS011;10018;51.230;7.860;2023-01-30T15:07:44;18.80;;;3.17;;
19733;SDS011;10018;51.230;7.860;2023-01-30T15:13:10;17.83;;;3.27;;
19733;SDS011;10018;51.230;7.860;2023-01-30T15:16:02;18.53;;;3.60;;
19733;SDS011;10018;51.230;7.860;2023-01-30T15:18:50;15.10;;;4.13;;
19733;SDS011;10018;51.230;7.860;2023-01-30T15:21:33;21.03;;;3.43;;
19733;SDS011;10018;51.230;7.860;2023-01-30T15:32:37;24.23;;;3.73;;
19733;SDS011;10018;51.230;7.860;2023-01-30T15:37:51;17.27;;;3.10;;
19733;SDS011;10018;51.230;7.860;2023-01-30T15:42:47;20.73;;;3.03;;
19733;SDS011;10018;51.230;7.860;2023-01-30T15:50:52;16.40;;;3.03;;
19733;SDS011;10018;51.230;7.860;2023-01-30T15:53:28;15.43;;;2.80;;
19733;SDS011;10018;51.230;7.860;2023-01-30T15:56:00;16.70;;;3.10;;
19733;SDS011;10018;51.230;7.860;2023-01-30T15:58:30;19.20;;;3.20;;
19733;SDS011;10018;51.230;7.860;2023-01-30T16:01:01;16.87;;;3.33;;
19733;SDS011;10018;51.230;7.860;2023-01-30T16:03:29;16.23;;;2.60;;
19733;SDS011;10018;51.230;7.860;2023-01-30T16:05:58;16.50;;;3.60;;
19733;SDS011;10018;51.230;7.860;2023-01-30T16:08:24;23.63;;;5.67;;
19733;SDS011;10018;51.230;7.860;2023-01-30T16:10:52;17.57;;;3.90;;
19733;SDS011;10018;51.230;7.860;2023-01-30T16:13:18;22.03;;;4.20;;
19733;SDS011;10018;51.230;7.860;2023-01-30T16:16:04;19.53;;;3.87;;
19733;SDS011;10018;51.230;7.860;2023-01-30T16:21:40;22.33;;;4.57;;
19733;SDS011;10018;51.230;7.860;2023-01-30T16:24:14;21.17;;;4.60;;
19733;SDS011;10018;51.230;7.860;2023-01-30T16:26:52;19.73;;;4.17;;
19733;SDS011;10018;51.230;7.860;2023-01-30T16:29:21;20.53;;;6.27;;
19733;SDS011;10018;51.230;7.860;2023-01-30T16:31:49;22.17;;;4.20;;
19733;SDS011;10018;51.230;7.860;2023-01-30T16:36:56;20.37;;;5.03;;
19733;SDS011;10018;51.230;7.860;2023-01-30T16:39:30;18.83;;;4.53;;
19733;SDS011;10018;51.230;7.860;2023-01-30T16:41:57;16.80;;;3.90;;
19733;SDS011;10018;51.230;7.860;2023-01-30T16:44:25;17.53;;;4.37;;
19733;SDS011;10018;51.230;7.860;2023-01-30T16:46:54;20.30;;;4.67;;
19733;SDS011;10018;51.230;7.860;2023-01-30T16:54:45;17.87;;;3.20;;
19733;SDS011;10018;51.230;7.860;2023-01-30T16:57:22;18.43;;;4.47;;
19733;SDS011;10018;51.230;7.860;2023-01-30T16:59:58;23.30;;;3.63;;
19733;SDS011;10018;51.230;7.860;2023-01-30T17:02:30;23.93;;;3.40;;
19733;SDS011;10018;51.230;7.860;2023-01-30T17:05:16;18.73;;;3.70;;
19733;SDS011;10018;51.230;7.860;2023-01-30T17:07:43;20.70;;;2.97;;
19733;SDS011;10018;51.230;7.860;2023-01-30T17:12:54;23.13;;;4.07;;
19733;SDS011;10018;51.230;7.860;2023-01-30T17:17:45;22.20;;;3.97;;
19733;SDS011;10018;51.230;7.860;2023-01-30T17:20:12;17.90;;;3.77;;
19733;SDS011;10018;51.230;7.860;2023-01-30T17:22:40;17.87;;;3.33;;
19733;SDS011;10018;51.230;7.860;2023-01-30T17:27:59;14.80;;;2.77;;
19733;SDS011;10018;51.230;7.860;2023-01-30T17:30:25;15.57;;;3.40;;
19733;SDS011;10018;51.230;7.860;2023-01-30T17:32:50;21.37;;;3.63;;
19733;SDS011;10018;51.230;7.860;2023-01-30T17:35:16;20.70;;;3.23;;
19733;SDS011;10018;51.230;7.860;2023-01-30T17:37:42;20.10;;;3.10;;
19733;SDS011;10018;51.230;7.860;2023-01-30T17:40:15;16.77;;;3.00;;